Time;durP1;ratioP1;P1;durP2;ratioP2;P2;SDS_P1;SDS_P2;PMS_P1;PMS_P2;Temp;Humidity;BMP_temperature;BMP_pressure;BME280_temperature;BME280_humidity;BME280_pressure;Samples;Min_cycle;Max_cycle;Signal;HPM_P1;HPM_P2
2023/05/01 00:01:21;;;;;;;18.00;13.00;;;14.30;92.00;;;;;;4594190;19;20546;-19
2023/05/01 00:02:55;;;;;;;20.50;14.07;;;14.20;92.00;;;;;;4594048;19;20503;-20
2023/05/01 00:04:26;;;;;;;21.75;13.48;;;14.20;92.00;;;;;;4594825;19;20002;-19
2023/05/01 00:06:02;;;;;;;21.38;12.88;;;14.20;91.90;;;;;;4593695;19;20011;-20
2023/05/01 00:07:34;;;;;;;18.73;12.87;;;14.20;91.90;;;;;;4593908;19;20010;-20
2023/05/01 00:09:06;;;;;;;19.30;13.03;;;14.20;91.90;;;;;;4594049;19;20006;-20
2023/05/01 00:10:37;;;;;;;19.50;12.18;;;14.20;92.00;;;;;;4593182;19;20011;-19
2023/05/01 00:12:10;;;;;;;16.00;10.83;;;14.20;92.10;;;;;;4592510;19;20010;-20
2023/05/01 00:13:44;;;;;;;20.50;11.90;;;14.20;92.20;;;;;;4593493;19;20031;-20
2023/05/01 00:15:16;;;;;;;21.23;11.98;;;14.20;92.10;;;;;;4594124;19;20011;-20
2023/05/01 00:16:47;;;;;;;20.47;12.77;;;14.20;92.20;;;;;;4592644;19;20017;-20
2023/05/01 00:18:20;;;;;;;21.70;15.53;;;14.20;92.20;;;;;;4593157;19;20010;-19
2023/05/01 00:19:53;;;;;;;21.98;15.15;;;14.20;92.00;;;;;;4592588;19;20085;-20
2023/05/01 00:21:24;;;;;;;22.90;15.57;;;14.20;92.00;;;;;;4593343;19;20018;-20
2023/05/01 00:22:57;;;;;;;23.50;15.47;;;14.20;91.90;;;;;;4593442;19;20007;-20
2023/05/01 00:24:28;;;;;;;23.23;14.25;;;14.20;91.90;;;;;;4592334;19;20086;-20
2023/05/01 00:25:59;;;;;;;21.35;13.98;;;14.20;91.90;;;;;;4593097;19;20010;-20
2023/05/01 00:27:30;;;;;;;21.65;14.00;;;14.20;91.80;;;;;;4593872;19;20014;-19
2023/05/01 00:29:01;;;;;;;22.67;14.38;;;14.20;92.00;;;;;;4593571;19;20003;-19
2023/05/01 00:30:34;;;;;;;19.37;12.97;;;14.20;91.90;;;;;;4593152;19;20476;-20
2023/05/01 00:32:06;;;;;;;21.43;14.30;;;14.20;91.80;;;;;;4593406;19;20034;-20
2023/05/01 00:33:37;;;;;;;24.52;16.00;;;14.10;91.80;;;;;;4592236;19;20013;-19
2023/05/01 00:35:11;;;;;;;21.63;16.43;;;14.10;91.70;;;;;;4591934;19;20097;-21
2023/05/01 00:36:43;;;;;;;21.83;16.27;;;14.10;91.70;;;;;;4593027;19;20038;-19
2023/05/01 00:38:15;;;;;;;25.00;16.33;;;14.10;91.70;;;;;;4593588;19;20010;-19
2023/05/01 00:39:47;;;;;;;18.80;12.60;;;14.10;91.90;;;;;;4594077;19;20003;-20
2023/05/01 00:41:18;;;;;;;16.17;10.85;;;14.10;91.90;;;;;;4593101;19;20010;-20
2023/05/01 00:42:51;;;;;;;18.47;12.17;;;14.10;91.90;;;;;;4591479;19;20018;-20
2023/05/01 00:44:22;;;;;;;17.20;10.60;;;14.10;91.80;;;;;;4591245;19;20021;-19
2023/05/01 00:45:57;;;;;;;18.30;11.83;;;14.10;91.80;;;;;;4593362;19;20002;-19
2023/05/01 00:47:32;;;;;;;17.17;12.33;;;14.10;91.70;;;;;;4590354;19;20369;-19
2023/05/01 00:49:04;;;;;;;21.67;12.33;;;14.10;91.70;;;;;;4590676;19;20011;-20
2023/05/01 00:50:37;;;;;;;17.47;12.17;;;14.10;91.70;;;;;;4592094;19;20003;-19
2023/05/01 00:52:10;;;;;;;21.33;14.20;;;14.10;91.70;;;;;;4592458;19;20078;-20
2023/05/01 00:53:42;;;;;;;23.63;15.20;;;14.10;91.70;;;;;;4592485;19;20364;-20
2023/05/01 00:55:15;;;;;;;21.43;17.70;;;14.10;91.90;;;;;;4591585;19;20030;-20
2023/05/01 00:56:48;;;;;;;18.47;15.50;;;14.10;91.70;;;;;;4590577;19;20054;-19
2023/05/01 00:58:20;;;;;;;17.73;13.40;;;14.10;91.70;;;;;;4592021;19;20014;-20
2023/05/01 00:59:51;;;;;;;16.60;10.98;;;14.10;91.90;;;;;;4592400;19;20010;-19
2023/05/01 01:01:24;;;;;;;17.27;11.33;;;14.10;91.80;;;;;;4591530;19;20014;-20
2023/05/01 01:02:58;;;;;;;16.23;11.07;;;14.10;91.70;;;;;;4592037;19;20033;-19
2023/05/01 01:04:32;;;;;;;17.03;11.63;;;14.10;91.70;;;;;;4590446;19;20010;-19
2023/05/01 01:06:12;;;;;;;16.67;11.13;;;14.10;91.70;;;;;;4591670;19;20017;-19
2023/05/01 01:08:10;;;;;;;24.20;13.80;;;14.10;91.70;;;;;;4591739;19;20181;-19
2023/05/01 01:09:58;;;;;;;17.67;12.67;;;14.00;91.80;;;;;;4593085;19;20066;-19
2023/05/01 01:11:40;;;;;;;18.30;12.00;;;14.00;91.80;;;;;;4591922;19;20014;-20
2023/05/01 01:13:19;;;;;;;17.15;12.70;;;14.00;91.80;;;;;;4592265;19;20022;-20
2023/05/01 01:14:56;;;;;;;18.17;10.87;;;14.00;92.00;;;;;;4591268;19;20045;-20
2023/05/01 01:16:35;;;;;;;16.23;10.00;;;14.00;91.90;;;;;;4592171;19;20333;-19
2023/05/01 01:18:15;;;;;;;15.60;10.30;;;14.00;91.90;;;;;;4591488;19;20345;-20
2023/05/01 01:20:18;;;;;;;16.20;10.30;;;14.00;91.90;;;;;;4592488;19;20010;-20
2023/05/01 01:21:53;;;;;;;16.97;11.47;;;14.00;91.80;;;;;;4591090;19;20014;-19
2023/05/01 01:23:35;;;;;;;20.37;12.73;;;14.00;91.70;;;;;;4591753;19;20015;-20
2023/05/01 01:25:13;;;;;;;;;;;14.00;91.70;;;;;;4591998;19;20517;-19
2023/05/01 01:27:02;;;;;;;16.53;11.20;;;14.00;91.70;;;;;;4591267;19;19919;-20
2023/05/01 01:29:04;;;;;;;18.48;11.95;;;14.00;91.60;;;;;;4592080;19;20014;-19
2023/05/01 01:30:51;;;;;;;16.47;11.33;;;14.00;91.70;;;;;;4592441;19;20070;-20
2023/05/01 01:32:25;;;;;;;16.23;11.50;;;14.00;91.70;;;;;;4592748;19;20332;-19
2023/05/01 01:34:13;;;;;;;18.10;11.60;;;14.00;91.80;;;;;;4591986;19;20011;-21
2023/05/01 01:35:50;;;;;;;16.70;11.67;;;14.00;91.80;;;;;;4592559;19;20002;-20
2023/05/01 01:37:22;;;;;;;18.10;11.43;;;14.00;91.60;;;;;;4590934;19;20014;-20
2023/05/01 01:39:10;;;;;;;18.17;12.33;;;13.90;91.70;;;;;;4591531;19;20019;-19
2023/05/01 01:40:53;;;;;;;20.87;11.93;;;14.00;91.70;;;;;;4591121;19;20010;-19
2023/05/01 01:42:30;;;;;;;20.30;12.60;;;14.00;91.60;;;;;;4590270;19;20018;-20
2023/05/01 01:44:19;;;;;;;23.33;17.27;;;14.00;91.70;;;;;;4590533;19;20009;-20
2023/05/01 01:45:59;;;;;;;18.23;14.47;;;14.00;91.60;;;;;;4590831;19;20014;-19
2023/05/01 01:47:31;;;;;;;21.00;14.63;;;14.00;91.60;;;;;;4590872;19;20025;-19
2023/05/01 01:49:05;;;;;;;18.37;13.70;;;13.90;91.50;;;;;;4590679;19;20041;-19
2023/05/01 01:50:38;;;;;;;20.03;14.17;;;14.00;91.50;;;;;;4591103;19;20015;-20
2023/05/01 01:52:09;;;;;;;20.27;13.67;;;13.90;91.40;;;;;;4590356;19;20014;-20
2023/05/01 01:53:45;;;;;;;20.93;14.00;;;14.00;91.40;;;;;;4590419;19;20048;-20
2023/05/01 01:55:16;;;;;;;19.63;14.30;;;13.90;91.30;;;;;;4590690;19;20499;-20
2023/05/01 01:56:49;;;;;;;19.20;13.50;;;13.90;91.30;;;;;;4588143;19;20318;-19
2023/05/01 01:58:24;;;;;;;25.00;14.50;;;13.90;91.30;;;;;;4590369;19;20014;-19
2023/05/01 01:59:57;;;;;;;18.97;13.87;;;13.90;91.30;;;;;;4590266;19;20011;-20
2023/05/01 02:01:31;;;;;;;20.53;15.50;;;13.90;91.30;;;;;;4591432;19;20010;-19
2023/05/01 02:03:03;;;;;;;26.70;17.50;;;13.90;91.40;;;;;;4590068;19;20035;-20
2023/05/01 02:04:35;;;;;;;20.50;15.27;;;13.90;91.30;;;;;;4589685;19;20010;-20
2023/05/01 02:06:07;;;;;;;19.63;13.32;;;13.90;91.60;;;;;;4590376;19;20062;-19
2023/05/01 02:07:39;;;;;;;21.45;14.13;;;13.90;91.30;;;;;;4590529;19;20456;-19
2023/05/01 02:09:11;;;;;;;20.37;12.97;;;13.90;91.30;;;;;;4590262;19;20018;-20
2023/05/01 02:10:42;;;;;;;19.05;13.43;;;13.90;91.20;;;;;;4590213;19;20006;-19
2023/05/01 02:12:13;;;;;;;21.45;13.82;;;13.90;91.40;;;;;;4590123;19;20011;-21
2023/05/01 02:13:46;;;;;;;22.57;14.73;;;13.90;91.40;;;;;;4590583;19;20014;-19
2023/05/01 02:15:19;;;;;;;74.37;45.40;;;13.90;91.30;;;;;;4591372;19;20054;-20
2023/05/01 02:16:50;;;;;;;54.80;34.63;;;13.90;91.20;;;;;;4590200;19;20014;-19
2023/05/01 02:18:21;;;;;;;27.50;18.35;;;13.90;91.20;;;;;;4590328;19;20113;-20
2023/05/01 02:19:54;;;;;;;20.97;13.80;;;13.90;91.20;;;;;;4590663;19;20338;-21
2023/05/01 02:21:26;;;;;;;19.07;12.90;;;13.90;91.20;;;;;;4590150;19;19998;-20
2023/05/01 02:22:58;;;;;;;15.82;11.25;;;13.90;91.20;;;;;;4589960;19;20010;-19
2023/05/01 02:24:29;;;;;;;17.60;12.20;;;13.90;91.10;;;;;;4590781;19;20015;-19
2023/05/01 02:26:03;;;;;;;19.23;13.33;;;13.80;91.10;;;;;;4590384;19;19998;-20
2023/05/01 02:27:37;;;;;;;19.27;13.53;;;13.90;91.10;;;;;;4589651;19;20021;-20
2023/05/01 02:29:10;;;;;;;20.50;13.40;;;13.80;91.10;;;;;;4589884;19;20011;-20
2023/05/01 02:30:43;;;;;;;21.07;14.77;;;13.80;91.10;;;;;;4589838;19;20007;-20
2023/05/01 02:32:17;;;;;;;31.77;17.67;;;13.80;91.10;;;;;;4590936;19;20025;-20
2023/05/01 02:33:48;;;;;;;27.37;17.63;;;13.80;91.20;;;;;;4591316;19;20463;-20
2023/05/01 02:35:21;;;;;;;23.10;16.63;;;13.80;91.10;;;;;;4591061;19;20010;-20
2023/05/01 02:36:53;;;;;;;19.43;14.30;;;13.80;91.20;;;;;;4591255;19;20022;-20
2023/05/01 02:38:27;;;;;;;28.03;19.07;;;13.80;91.10;;;;;;4588736;19;20025;-20
2023/05/01 02:39:58;;;;;;;34.23;19.10;;;13.80;91.10;;;;;;4588456;19;20025;-20
2023/05/01 02:41:29;;;;;;;28.17;16.48;;;13.80;91.20;;;;;;4588431;19;20024;-20
2023/05/01 02:43:02;;;;;;;29.23;17.57;;;13.80;91.20;;;;;;4587185;19;20034;-20
2023/05/01 02:44:41;;;;;;;;;;;13.80;91.10;;;;;;4589452;19;20009;-19
2023/05/01 02:46:12;;;;;;;34.37;19.23;;;13.80;91.20;;;;;;4588463;19;20253;-19
2023/05/01 02:47:43;;;;;;;30.60;17.50;;;13.80;91.00;;;;;;4588509;19;20010;-19
2023/05/01 02:49:14;;;;;;;32.28;18.70;;;13.80;91.00;;;;;;4588394;19;19999;-19
2023/05/01 02:50:46;;;;;;;28.45;18.52;;;13.80;90.90;;;;;;4588884;19;19999;-19
2023/05/01 02:52:18;;;;;;;30.53;20.27;;;13.80;90.90;;;;;;4588285;19;20022;-20
2023/05/01 02:53:50;;;;;;;31.80;21.13;;;13.80;91.00;;;;;;4588451;19;20039;-19
2023/05/01 02:55:22;;;;;;;31.50;21.23;;;13.80;91.00;;;;;;4588147;19;20054;-19
2023/05/01 02:56:53;;;;;;;31.73;19.47;;;13.80;90.90;;;;;;4587847;19;20011;-20
2023/05/01 02:58:30;;;;;;;32.07;20.03;;;13.80;90.90;;;;;;4588224;19;20531;-19
2023/05/01 03:00:01;;;;;;;31.33;18.17;;;13.80;90.80;;;;;;4588336;19;20519;-19
2023/05/01 03:01:32;;;;;;;30.08;18.50;;;13.80;90.80;;;;;;4588320;19;20010;-20
2023/05/01 03:03:03;;;;;;;28.58;15.82;;;13.80;90.80;;;;;;4587817;19;20014;-21
2023/05/01 03:04:35;;;;;;;;;;;13.80;90.90;;;;;;4588957;19;20476;-20
2023/05/01 03:06:08;;;;;;;27.60;18.17;;;13.80;91.00;;;;;;4588585;19;19914;-20
2023/05/01 03:07:40;;;;;;;26.25;17.13;;;13.80;90.90;;;;;;4588118;19;20017;-20
2023/05/01 03:09:11;;;;;;;30.52;15.93;;;13.80;90.90;;;;;;4587850;19;20385;-20
2023/05/01 03:10:44;;;;;;;23.53;14.97;;;13.80;90.80;;;;;;4590091;19;20015;-19
2023/05/01 03:12:15;;;;;;;20.50;13.02;;;13.80;90.80;;;;;;4590879;19;20335;-20
2023/05/01 03:13:48;;;;;;;21.77;14.37;;;13.80;90.90;;;;;;4589108;19;20014;-20
2023/05/01 03:15:20;;;;;;;24.27;15.17;;;13.80;91.00;;;;;;4589718;19;20070;-19
2023/05/01 03:16:51;;;;;;;21.20;14.20;;;13.80;91.00;;;;;;4590029;19;20017;-20
2023/05/01 03:18:25;;;;;;;22.77;14.97;;;13.80;90.90;;;;;;4590128;19;20007;-20
2023/05/01 03:19:57;;;;;;;20.93;14.40;;;13.80;90.90;;;;;;4588637;19;20030;-20
2023/05/01 03:21:31;;;;;;;21.63;13.37;;;13.80;91.00;;;;;;4588889;19;20014;-19
2023/05/01 03:23:02;;;;;;;;;;;13.80;90.90;;;;;;4590539;19;20007;-20
2023/05/01 03:24:33;;;;;;;26.17;14.60;;;13.80;91.00;;;;;;4590418;19;19907;-19
2023/05/01 03:26:06;;;;;;;25.02;15.18;;;13.80;91.00;;;;;;4590197;19;20388;-20
2023/05/01 03:27:38;;;;;;;24.70;16.70;;;13.80;91.20;;;;;;4589906;19;20022;-20
2023/05/01 03:29:12;;;;;;;25.88;16.95;;;13.80;91.20;;;;;;4590509;19;20456;-20
2023/05/01 03:31:02;;;;;;;28.83;18.43;;;13.80;91.20;;;;;;4590387;19;20030;-20
2023/05/01 03:32:33;;;;;;;28.70;17.37;;;13.80;91.20;;;;;;4590250;19;20014;-19
2023/05/01 03:34:07;;;;;;;27.67;17.33;;;13.80;91.20;;;;;;4589680;19;20014;-20
2023/05/01 03:35:38;;;;;;;25.83;15.55;;;13.80;91.40;;;;;;4588860;19;20081;-19
2023/05/01 03:37:09;;;;;;;26.23;15.98;;;13.80;91.50;;;;;;4589621;19;20010;-20
2023/05/01 03:38:41;;;;;;;23.43;16.27;;;13.80;91.60;;;;;;4588700;19;20019;-20
2023/05/01 03:40:14;;;;;;;24.00;16.23;;;13.80;91.60;;;;;;4589270;19;20021;-19
2023/05/01 03:41:45;;;;;;;20.02;14.48;;;13.80;91.70;;;;;;4588574;19;20011;-20
2023/05/01 03:43:17;;;;;;;23.10;15.27;;;13.80;91.80;;;;;;4587004;19;20402;-20
2023/05/01 03:44:50;;;;;;;26.17;17.47;;;13.80;91.80;;;;;;4589989;19;20007;-20
2023/05/01 03:46:22;;;;;;;21.58;15.90;;;13.80;91.80;;;;;;4589543;19;20022;-20
2023/05/01 03:47:56;;;;;;;26.37;15.93;;;13.80;91.80;;;;;;4590055;19;20044;-21
2023/05/01 03:49:27;;;;;;;24.40;15.68;;;13.80;91.80;;;;;;4588550;19;20346;-20
2023/05/01 03:50:59;;;;;;;20.58;15.27;;;13.80;91.70;;;;;;4588840;19;20460;-20
2023/05/01 03:52:33;;;;;;;21.30;15.17;;;13.80;91.70;;;;;;4588367;19;20026;-20
2023/05/01 03:54:05;;;;;;;24.58;16.42;;;13.80;91.70;;;;;;4589456;19;20014;-20
2023/05/01 03:55:36;;;;;;;24.30;16.00;;;13.80;91.80;;;;;;4590135;19;20074;-21
2023/05/01 03:57:09;;;;;;;23.20;16.60;;;13.80;91.90;;;;;;4588430;19;20362;-19
2023/05/01 03:58:42;;;;;;;24.67;18.07;;;13.80;92.00;;;;;;4589713;19;20025;-20
2023/05/01 04:00:13;;;;;;;23.20;17.25;;;13.80;92.00;;;;;;4589354;19;20022;-20
2023/05/01 04:01:45;;;;;;;24.13;16.63;;;13.80;92.00;;;;;;4588452;19;20006;-22
2023/05/01 04:03:18;;;;;;;24.90;17.33;;;13.80;92.10;;;;;;4588522;19;20476;-19
2023/05/01 04:04:51;;;;;;;24.23;17.60;;;13.80;92.10;;;;;;4586835;19;20031;-20
2023/05/01 04:06:24;;;;;;;27.10;18.47;;;13.90;92.20;;;;;;4588101;19;20402;-20
2023/05/01 04:07:57;;;;;;;26.73;18.57;;;13.80;92.10;;;;;;4589100;19;20007;-21
2023/05/01 04:09:31;;;;;;;23.47;16.73;;;13.80;92.10;;;;;;4587859;19;20019;-19
2023/05/01 04:11:02;;;;;;;24.80;17.60;;;13.80;92.30;;;;;;4588713;19;20011;-20
2023/05/01 04:12:33;;;;;;;22.88;16.98;;;13.80;92.40;;;;;;4589601;19;20325;-20
2023/05/01 04:14:04;;;;;;;26.90;16.58;;;13.80;92.40;;;;;;4589062;19;20062;-20
2023/05/01 04:15:35;;;;;;;23.20;15.88;;;13.90;92.40;;;;;;4588836;19;20018;-19
2023/05/01 04:17:07;;;;;;;20.65;15.45;;;13.90;92.40;;;;;;4588204;19;20019;-20
2023/05/01 04:18:38;;;;;;;20.92;15.90;;;13.90;92.50;;;;;;4589178;19;20009;-19
2023/05/01 04:20:10;;;;;;;20.70;15.68;;;13.90;92.60;;;;;;4592948;19;20070;-19
2023/05/01 04:21:41;;;;;;;19.33;13.95;;;13.90;92.60;;;;;;4593476;19;20035;-20
2023/05/01 04:23:13;;;;;;;18.03;14.17;;;13.90;92.60;;;;;;4593775;19;20030;-19
2023/05/01 04:24:45;;;;;;;17.07;12.70;;;13.90;92.60;;;;;;4593827;19;20345;-20
2023/05/01 04:26:17;;;;;;;17.70;12.25;;;13.90;92.60;;;;;;4593345;19;20014;-20
2023/05/01 04:27:48;;;;;;;15.32;12.02;;;13.90;92.80;;;;;;4593647;19;20023;-21
2023/05/01 04:29:19;;;;;;;15.43;11.80;;;13.90;92.80;;;;;;4593829;19;20003;-19
2023/05/01 04:30:51;;;;;;;16.50;11.47;;;13.90;92.90;;;;;;4593975;19;20464;-20
2023/05/01 04:32:22;;;;;;;19.15;13.10;;;13.90;93.00;;;;;;4593347;19;20044;-20
2023/05/01 04:33:53;;;;;;;17.13;13.32;;;13.90;93.10;;;;;;4592605;19;20014;-20
2023/05/01 04:35:25;;;;;;;17.25;12.30;;;13.90;93.10;;;;;;4593578;19;20014;-19
2023/05/01 04:36:57;;;;;;;14.97;11.97;;;13.90;93.20;;;;;;4593545;19;20483;-19
2023/05/01 04:38:30;;;;;;;15.83;11.10;;;13.90;93.20;;;;;;4593103;19;20360;-19
2023/05/01 04:40:02;;;;;;;15.37;10.87;;;13.90;93.40;;;;;;4593445;19;20345;-19
2023/05/01 04:41:33;;;;;;;17.48;12.43;;;13.90;93.40;;;;;;4593495;19;20018;-20
2023/05/01 04:43:04;;;;;;;16.00;11.65;;;13.90;93.50;;;;;;4591794;19;20006;-19
2023/05/01 04:44:36;;;;;;;18.08;13.30;;;14.00;93.40;;;;;;4592972;19;20011;-20
2023/05/01 04:46:08;;;;;;;19.30;12.43;;;14.00;93.50;;;;;;4593685;19;20318;-20
2023/05/01 04:47:39;;;;;;;15.77;11.98;;;14.00;93.50;;;;;;4593923;19;20011;-19
2023/05/01 04:49:11;;;;;;;16.48;11.48;;;14.00;93.50;;;;;;4592778;19;20397;-19
2023/05/01 04:50:45;;;;;;;19.87;12.70;;;14.00;93.60;;;;;;4592796;19;20077;-20
2023/05/01 04:52:19;;;;;;;17.37;12.67;;;14.00;93.60;;;;;;4593384;19;20014;-19
2023/05/01 04:53:54;;;;;;;16.73;12.47;;;14.00;93.60;;;;;;4592949;19;20007;-19
2023/05/01 04:55:25;;;;;;;17.33;13.40;;;14.00;93.70;;;;;;4591707;19;20337;-20
2023/05/01 04:56:56;;;;;;;16.58;12.75;;;14.00;93.80;;;;;;4590912;19;20015;-19
2023/05/01 04:58:27;;;;;;;16.98;12.45;;;14.00;93.80;;;;;;4593116;19;20470;-20
2023/05/01 05:00:02;;;;;;;17.03;12.37;;;14.00;93.80;;;;;;4592381;19;20014;-20
2023/05/01 05:01:33;;;;;;;16.73;11.30;;;14.00;93.90;;;;;;4591609;19;20441;-20
2023/05/01 05:03:06;;;;;;;17.93;11.53;;;14.00;94.10;;;;;;4591331;19;20014;-22
2023/05/01 05:04:38;;;;;;;16.50;12.23;;;14.20;94.10;;;;;;4592325;19;20015;-20
2023/05/01 05:06:10;;;;;;;17.25;11.52;;;14.20;94.10;;;;;;4592852;19;20015;-19
2023/05/01 05:07:42;;;;;;;16.67;12.53;;;14.20;94.00;;;;;;4592639;19;20013;-19
2023/05/01 05:09:13;;;;;;;15.77;11.25;;;14.20;94.10;;;;;;4592694;19;20010;-20
2023/05/01 05:10:45;;;;;;;15.10;12.23;;;14.20;94.20;;;;;;4593073;19;20021;-21
2023/05/01 05:12:18;;;;;;;17.87;12.03;;;14.20;94.20;;;;;;4592679;19;20040;-20
2023/05/01 05:13:50;;;;;;;16.87;12.57;;;14.20;94.30;;;;;;4591621;19;20460;-21
2023/05/01 05:15:21;;;;;;;16.00;11.25;;;14.10;94.30;;;;;;4591604;19;20015;-19
2023/05/01 05:16:52;;;;;;;19.17;12.60;;;14.20;94.40;;;;;;4592270;19;20022;-20
2023/05/01 05:18:24;;;;;;;17.77;12.88;;;14.20;94.50;;;;;;4592218;19;20018;-20
2023/05/01 05:19:56;;;;;;;16.63;11.67;;;14.20;94.60;;;;;;4592524;19;20029;-20
2023/05/01 05:21:30;;;;;;;16.63;12.40;;;14.20;94.60;;;;;;4591242;19;20022;-19
2023/05/01 05:23:01;;;;;;;19.90;12.43;;;14.20;94.80;;;;;;4591728;19;20467;-20
2023/05/01 05:24:32;;;;;;;16.65;12.35;;;14.20;94.70;;;;;;4589903;19;20014;-19
2023/05/01 05:26:04;;;;;;;15.30;11.50;;;14.20;94.80;;;;;;4592447;19;20055;-20
2023/05/01 05:27:37;;;;;;;16.10;11.30;;;14.20;94.90;;;;;;4592888;19;20002;-19
2023/05/01 05:29:08;;;;;;;18.08;12.32;;;14.20;94.90;;;;;;4591151;19;20010;-19
2023/05/01 05:30:39;;;;;;;15.83;11.27;;;14.30;94.90;;;;;;4589752;19;20011;-20
2023/05/01 05:32:11;;;;;;;16.27;11.48;;;14.30;94.90;;;;;;4588682;19;20115;-21
2023/05/01 05:33:43;;;;;;;;;;;14.30;94.90;;;;;;4590957;19;19999;-19
2023/05/01 05:35:14;;;;;;;15.30;10.00;;;14.30;95.00;;;;;;4589786;19;20269;-19
2023/05/01 05:36:45;;;;;;;19.90;12.73;;;14.30;95.10;;;;;;4589981;19;20007;-20
2023/05/01 05:38:19;;;;;;;16.77;11.57;;;14.30;95.20;;;;;;4589566;19;20039;-20
2023/05/01 05:39:51;;;;;;;18.30;12.47;;;14.40;95.20;;;;;;4590485;19;20043;-19
2023/05/01 05:41:23;;;;;;;18.37;12.27;;;14.40;95.20;;;;;;4589905;19;20009;-20
2023/05/01 05:42:55;;;;;;;18.55;12.48;;;14.40;95.10;;;;;;4588811;19;20019;-19
2023/05/01 05:44:27;;;;;;;14.83;11.37;;;14.40;95.10;;;;;;4588401;19;20511;-20
2023/05/01 05:45:58;;;;;;;19.95;12.77;;;14.40;95.20;;;;;;4589834;19;20098;-20
2023/05/01 05:47:30;;;;;;;15.33;11.03;;;14.40;95.30;;;;;;4589407;19;20011;-20
2023/05/01 05:49:01;;;;;;;17.83;12.50;;;14.40;95.40;;;;;;4589090;19;20019;-20
2023/05/01 05:50:33;;;;;;;22.43;14.40;;;14.50;95.60;;;;;;4589724;19;20021;-20
2023/05/01 05:52:06;;;;;;;22.13;14.57;;;14.50;95.50;;;;;;4589632;19;20032;-20
2023/05/01 05:53:38;;;;;;;21.50;15.23;;;14.50;95.50;;;;;;4589552;19;20372;-20
2023/05/01 05:55:09;;;;;;;24.95;16.52;;;14.50;95.50;;;;;;4589716;19;20357;-20
2023/05/01 05:56:42;;;;;;;24.57;16.60;;;14.50;95.60;;;;;;4588880;19;20028;-20
2023/05/01 05:58:22;;;;;;;32.87;20.47;;;14.50;95.70;;;;;;4589693;19;20014;-19
2023/05/01 05:59:55;;;;;;;33.30;20.83;;;14.50;95.40;;;;;;4589346;19;20014;-20
2023/05/01 06:01:26;;;;;;;22.85;14.50;;;14.50;95.00;;;;;;4589300;19;20386;-20
2023/05/01 06:02:57;;;;;;;18.52;11.60;;;14.50;94.50;;;;;;4589880;19;20051;-21
2023/05/01 06:04:28;;;;;;;15.70;9.93;;;14.60;94.30;;;;;;4589602;19;20074;-20
2023/05/01 06:06:00;;;;;;;11.30;7.20;;;14.60;94.30;;;;;;4589188;19;20019;-20
2023/05/01 06:07:31;;;;;;;12.07;6.80;;;14.60;94.10;;;;;;4589178;19;20015;-19
2023/05/01 06:09:03;;;;;;;10.98;7.22;;;14.60;94.20;;;;;;4590952;19;20002;-20
2023/05/01 06:10:38;;;;;;;9.37;6.53;;;14.60;94.10;;;;;;4592483;19;20034;-20
2023/05/01 06:12:10;;;;;;;12.10;7.23;;;14.60;94.30;;;;;;4591925;19;20011;-21
2023/05/01 06:13:42;;;;;;;12.27;5.60;;;14.60;94.20;;;;;;4592362;19;20013;-21
2023/05/01 06:15:15;;;;;;;8.88;5.47;;;14.70;94.20;;;;;;4593659;19;20021;-19
2023/05/01 06:16:48;;;;;;;12.53;6.90;;;14.70;94.10;;;;;;4593312;19;20017;-20
2023/05/01 06:18:19;;;;;;;9.63;5.18;;;14.70;94.30;;;;;;4592836;19;20018;-20
2023/05/01 06:19:53;;;;;;;14.35;5.72;;;14.70;94.20;;;;;;4591396;19;20074;-20
2023/05/01 06:21:24;;;;;;;8.17;4.80;;;14.70;94.00;;;;;;4592537;19;20023;-20
2023/05/01 06:22:56;;;;;;;6.80;3.67;;;14.70;93.90;;;;;;4590013;19;20029;-20
2023/05/01 06:24:27;;;;;;;;;;;14.70;94.20;;;;;;4590452;19;20082;-20
2023/05/01 06:25:59;;;;;;;14.98;6.40;;;14.70;94.00;;;;;;4591107;19;19918;-20
2023/05/01 06:27:30;;;;;;;9.88;5.05;;;14.80;94.10;;;;;;4590690;19;20025;-20
2023/05/01 06:29:01;;;;;;;5.93;4.28;;;14.70;93.90;;;;;;4591392;19;20045;-21
2023/05/01 06:30:33;;;;;;;8.60;4.85;;;14.80;93.90;;;;;;4590210;19;20034;-19
2023/05/01 06:32:04;;;;;;;9.98;5.72;;;14.90;93.60;;;;;;4591248;19;20038;-20
2023/05/01 06:33:35;;;;;;;9.00;5.13;;;14.90;93.70;;;;;;4590217;19;20496;-20
2023/05/01 06:35:07;;;;;;;8.77;4.55;;;14.90;93.50;;;;;;4588274;19;20094;-20
2023/05/01 06:36:38;;;;;;;13.27;5.50;;;15.00;93.20;;;;;;4588208;19;20074;-20
2023/05/01 06:38:09;;;;;;;14.45;7.53;;;15.00;93.10;;;;;;4591199;19;20352;-20
2023/05/01 06:39:41;;;;;;;;;;;15.10;92.90;;;;;;4592131;19;20025;-20
2023/05/01 06:41:13;;;;;;;12.83;7.57;;;15.10;93.10;;;;;;4591199;19;20333;-20
2023/05/01 06:42:44;;;;;;;12.32;5.65;;;15.20;92.90;;;;;;4587738;19;20025;-19
2023/05/01 06:44:15;;;;;;;9.85;5.53;;;15.20;93.00;;;;;;4588557;19;20018;-20
2023/05/01 06:45:47;;;;;;;13.73;6.05;;;15.30;92.80;;;;;;4589212;19;20048;-19
2023/05/01 06:47:19;;;;;;;;;;;15.30;92.70;;;;;;4590677;19;20006;-20
2023/05/01 06:48:50;;;;;;;11.60;7.20;;;15.30;92.80;;;;;;4588577;19;19927;-21
2023/05/01 06:50:21;;;;;;;7.13;5.32;;;15.00;92.40;;;;;;4589812;19;20014;-20
2023/05/01 06:51:53;;;;;;;11.10;8.27;;;13.10;93.80;;;;;;4589732;19;20508;-19
2023/05/01 06:53:26;;;;;;;15.80;11.07;;;12.10;95.50;;;;;;4587785;19;20511;-19
2023/05/01 06:54:57;;;;;;;13.02;10.90;;;11.70;96.20;;;;;;4588789;19;20461;-19
2023/05/01 06:56:28;;;;;;;17.58;13.82;;;11.50;97.20;;;;;;4588339;19;20019;-19
2023/05/01 06:57:59;;;;;;;11.15;8.43;;;11.50;97.00;;;;;;4590034;19;20025;-20
2023/05/01 06:59:32;;;;;;;12.90;8.77;;;11.40;97.80;;;;;;4589754;19;20011;-18
2023/05/01 07:01:03;;;;;;;11.43;9.20;;;11.40;97.30;;;;;;4590362;19;20456;-19
2023/05/01 07:02:36;;;;;;;12.68;9.15;;;11.40;97.00;;;;;;4588402;19;20022;-19
2023/05/01 07:04:07;;;;;;;11.00;7.93;;;11.40;97.10;;;;;;4587526;19;20483;-19
2023/05/01 07:05:41;;;;;;;11.75;7.30;;;11.40;96.80;;;;;;4587813;19;20499;-20
2023/05/01 07:07:13;;;;;;;9.20;7.17;;;11.50;97.50;;;;;;4588642;19;20018;-20
2023/05/01 07:08:44;;;;;;;9.45;5.80;;;11.50;96.80;;;;;;4588222;19;20477;-20
2023/05/01 07:10:16;;;;;;;;;;;11.50;96.60;;;;;;4589397;19;20041;-20
2023/05/01 07:11:48;;;;;;;9.13;5.50;;;11.80;97.00;;;;;;4590537;19;19915;-20
2023/05/01 07:13:20;;;;;;;7.80;5.63;;;11.70;96.70;;;;;;4590803;19;20469;-19
2023/05/01 07:14:51;;;;;;;9.63;6.18;;;11.70;96.70;;;;;;4589850;19;20923;-19
2023/05/01 07:16:23;;;;;;;11.27;5.88;;;11.70;97.30;;;;;;4590369;19;20026;-19
2023/05/01 07:17:55;;;;;;;8.50;5.47;;;11.70;97.00;;;;;;4590037;19;20532;-19
2023/05/01 07:19:26;;;;;;;6.65;4.38;;;11.70;97.90;;;;;;4590166;19;20014;-20
2023/05/01 07:20:58;;;;;;;7.75;5.30;;;11.70;97.30;;;;;;4589731;19;20027;-20
2023/05/01 07:22:29;;;;;;;10.77;7.57;;;11.70;97.40;;;;;;4588660;19;20015;-20
2023/05/01 07:24:00;;;;;;;7.30;5.50;;;11.70;97.90;;;;;;4588275;19;20489;-20
2023/05/01 07:25:32;;;;;;;6.80;4.13;;;11.70;98.00;;;;;;4587651;19;20051;-20
2023/05/01 07:27:04;;;;;;;8.13;4.80;;;11.70;97.80;;;;;;4590281;19;20503;-20
2023/05/01 07:28:37;;;;;;;8.57;6.17;;;11.70;98.20;;;;;;4589718;19;20011;-20
2023/05/01 07:30:09;;;;;;;8.52;4.80;;;11.70;97.70;;;;;;4587468;19;20485;-19
2023/05/01 07:31:41;;;;;;;6.65;4.82;;;11.80;97.90;;;;;;4588952;19;20021;-20
2023/05/01 07:33:12;;;;;;;8.97;5.00;;;11.80;98.10;;;;;;4589375;19;20491;-19
2023/05/01 07:34:44;;;;;;;9.75;5.65;;;11.80;96.90;;;;;;4587998;19;21016;-20
2023/05/01 07:36:17;;;;;;;8.25;5.85;;;11.80;97.20;;;;;;4588476;19;20039;-20
2023/05/01 07:37:50;;;;;;;7.87;5.83;;;11.80;98.30;;;;;;4587874;19;20465;-19
2023/05/01 07:39:22;;;;;;;6.53;4.80;;;11.80;97.70;;;;;;4586888;19;20432;-19
2023/05/01 07:40:53;;;;;;;8.05;5.35;;;11.80;98.20;;;;;;4587760;19;20433;-19
2023/05/01 07:42:28;;;;;;;9.35;6.22;;;11.80;98.50;;;;;;4590300;19;20019;-19
2023/05/01 07:43:59;;;;;;;6.70;4.60;;;11.90;98.30;;;;;;4589479;19;20015;-20
2023/05/01 07:45:30;;;;;;;7.60;5.38;;;11.90;98.50;;;;;;4588719;19;20487;-19
2023/05/01 07:47:03;;;;;;;6.50;4.80;;;11.90;98.50;;;;;;4588357;19;20507;-21
2023/05/01 07:48:34;;;;;;;7.33;5.10;;;11.90;98.50;;;;;;4587133;19;20003;-19
2023/05/01 07:50:10;;;;;;;8.73;5.05;;;11.90;98.30;;;;;;4587467;19;20798;-20
2023/05/01 07:51:41;;;;;;;6.97;4.50;;;12.00;98.20;;;;;;4586605;19;20010;-20
2023/05/01 07:53:12;;;;;;;6.60;4.47;;;11.90;97.60;;;;;;4589480;19;21397;-20
2023/05/01 07:54:49;;;;;;;6.17;4.33;;;11.90;97.70;;;;;;4591050;19;20014;-20
2023/05/01 07:56:20;;;;;;;9.50;4.63;;;11.90;98.20;;;;;;4592933;19;20461;-20